Sagittarian — WCY5210 — position and weather

sailwx.info

Track history (hours):
 
Tides and Currents Weather Stations Pressure Air Temp Water Temp Dewpoint Dewpoint Depression Visibility Wind Speed Wind Dir Waves Ship Positions

Sagittarian

Owner: TAURUS MARINE, SAN FRANCISCO, CA. More information available from US FCC via Universal Licensing System and Coast Guard Vessel Documentation Center.

Last reported at 2016-Jul-24 10:06 UTC. Time now 2016-Jul-24 16:42 UTC.
Position N 37°46' W 122°23'.

; draft 3 m.

Type: Towing. MMSI: 366969510.

Date/timePositionNaut miles runAvg speedWind from/ knotsBaromVisibWave heightAir tempDewpointWater temp
2016-Jul-24 10:06N 37°46' W 122°23'3 5.4
2016-Jul-24 09:34N 37°48' W 122°20'1 0.8
2016-Jul-24 08:33N 37°48' W 122°19'3 3.3
2016-Jul-24 07:34N 37°47' W 122°23'0 0.0
2016-Jul-23 16:08N 37°46' W 122°23'0 0.1
2016-Jul-23 15:33N 37°47' W 122°23'1 0.6
2016-Jul-23 14:33N 37°47' W 122°23'8 8.3
2016-Jul-23 13:33N 37°55' W 122°25'1 1.3
2016-Jul-23 12:33N 37°55' W 122°26'0 0.1
2016-Jul-23 11:33N 37°55' W 122°26'0 0.0
2016-Jul-23 10:33N 37°55' W 122°26'5 4.6
2016-Jul-23 09:28N 37°60' W 122°25'7 8.0
2016-Jul-23 08:33N 38°03' W 122°17'7 3.2
2016-Jul-23 06:24N 38°02' W 122°08'5 0.3
2016-Jul-22 14:33N 38°04' W 122°14'6 6.3
2016-Jul-22 13:33N 38°03' W 122°06'2 2.0
2016-Jul-22 12:32N 38°02' W 122°09'3 2.8
2016-Jul-22 11:33N 38°03' W 122°12'5 5.0
2016-Jul-22 10:33N 38°03' W 122°18'7 6.9
2016-Jul-22 09:33N 37°59' W 122°25'5 4.7
2016-Jul-22 08:33N 37°55' W 122°26'0 0.1
2016-Jul-22 07:33N 37°55' W 122°26'8 8.0
2016-Jul-22 06:33N 37°47' W 122°23'1 0.1
2016-Jul-22 02:20N 37°46' W 122°23'5 6.4
2016-Jul-22 01:33N 37°51' W 122°24'4 4.2
2016-Jul-22 00:33N 37°55' W 122°25'1 1.0
2016-Jul-21 23:33N 37°54' W 122°24'8 7.7
2016-Jul-21 22:33N 37°47' W 122°23'0 0.2
2016-Jul-21 20:13N 37°46' W 122°23'3 4.3
2016-Jul-21 19:33N 37°44' W 122°21'1 0.6
2016-Jul-21 18:26N 37°44' W 122°21'0 0.1
2016-Jul-21 17:33N 37°44' W 122°21'3 3.2
2016-Jul-21 16:33N 37°46' W 122°23'0 0.4
2016-Jul-21 15:33N 37°46' W 122°23'1 1.4
2016-Jul-21 14:33N 37°47' W 122°21'1 0.8
2016-Jul-21 13:33N 37°46' W 122°20'2 2.2
2016-Jul-21 12:33N 37°47' W 122°23'1 0.2
2016-Jul-21 06:33N 37°48' W 122°23'8 7.5
2016-Jul-21 05:32N 37°55' W 122°25'1 0.9
2016-Jul-21 04:33N 37°55' W 122°26'7 7.3
2016-Jul-21 03:33N 38°02' W 122°22'6 0.4
2016-Jul-20 10:33N 38°05' W 122°15'5 2.2
2016-Jul-20 08:11N 38°02' W 122°09'3 0.1
2016-Jul-19 13:16N 38°03' W 122°12'3 4.4
2016-Jul-19 12:32N 38°04' W 122°16'12 2.8
2016-Jul-19 08:25N 37°54' W 122°25'8 1.6
2016-Jul-19 03:28N 37°46' W 122°23'14 6.7
2016-Jul-19 01:22N 38°01' W 122°23'  
Track history (hours):
 
Tides and Currents Weather Stations Pressure Air Temp Water Temp Dewpoint Dewpoint Depression Visibility Wind Speed Wind Dir Waves Ship Positions

Sagittarian

Owner: TAURUS MARINE, SAN FRANCISCO, CA. More information available from US FCC via Universal Licensing System and Coast Guard Vessel Documentation Center.

Last reported at 2016-Jul-24 10:06 UTC. Time now 2016-Jul-24 16:42 UTC.
Position N 37°46' W 122°23'.

; draft 3 m.

Type: Towing. MMSI: 366969510.

Date/timePositionNaut miles runAvg speedWind from/ knotsBaromVisibWave heightAir tempDewpointWater temp
2016-Jul-24 10:06N 37°46' W 122°23'3 5.4
2016-Jul-24 09:34N 37°48' W 122°20'1 0.8
2016-Jul-24 08:33N 37°48' W 122°19'3 3.3
2016-Jul-24 07:34N 37°47' W 122°23'0 0.0
2016-Jul-23 16:08N 37°46' W 122°23'0 0.1
2016-Jul-23 15:33N 37°47' W 122°23'1 0.6
2016-Jul-23 14:33N 37°47' W 122°23'8 8.3
2016-Jul-23 13:33N 37°55' W 122°25'1 1.3
2016-Jul-23 12:33N 37°55' W 122°26'0 0.1
2016-Jul-23 11:33N 37°55' W 122°26'0 0.0
2016-Jul-23 10:33N 37°55' W 122°26'5 4.6
2016-Jul-23 09:28N 37°60' W 122°25'7 8.0
2016-Jul-23 08:33N 38°03' W 122°17'7 3.2
2016-Jul-23 06:24N 38°02' W 122°08'5 0.3
2016-Jul-22 14:33N 38°04' W 122°14'6 6.3
2016-Jul-22 13:33N 38°03' W 122°06'2 2.0
2016-Jul-22 12:32N 38°02' W 122°09'3 2.8
2016-Jul-22 11:33N 38°03' W 122°12'5 5.0
2016-Jul-22 10:33N 38°03' W 122°18'7 6.9
2016-Jul-22 09:33N 37°59' W 122°25'5 4.7
2016-Jul-22 08:33N 37°55' W 122°26'0 0.1
2016-Jul-22 07:33N 37°55' W 122°26'8 8.0
2016-Jul-22 06:33N 37°47' W 122°23'1 0.1
2016-Jul-22 02:20N 37°46' W 122°23'5 6.4
2016-Jul-22 01:33N 37°51' W 122°24'4 4.2
2016-Jul-22 00:33N 37°55' W 122°25'1 1.0
2016-Jul-21 23:33N 37°54' W 122°24'8 7.7
2016-Jul-21 22:33N 37°47' W 122°23'0 0.2
2016-Jul-21 20:13N 37°46' W 122°23'3 4.3
2016-Jul-21 19:33N 37°44' W 122°21'1 0.6
2016-Jul-21 18:26N 37°44' W 122°21'0 0.1
2016-Jul-21 17:33N 37°44' W 122°21'3 3.2
2016-Jul-21 16:33N 37°46' W 122°23'0 0.4
2016-Jul-21 15:33N 37°46' W 122°23'1 1.4
2016-Jul-21 14:33N 37°47' W 122°21'1 0.8
2016-Jul-21 13:33N 37°46' W 122°20'2 2.2
2016-Jul-21 12:33N 37°47' W 122°23'1 0.2
2016-Jul-21 06:33N 37°48' W 122°23'8 7.5
2016-Jul-21 05:32N 37°55' W 122°25'1 0.9
2016-Jul-21 04:33N 37°55' W 122°26'7 7.3
2016-Jul-21 03:33N 38°02' W 122°22'6 0.4
2016-Jul-20 10:33N 38°05' W 122°15'5 2.2
2016-Jul-20 08:11N 38°02' W 122°09'3 0.1
2016-Jul-19 13:16N 38°03' W 122°12'3 4.4
2016-Jul-19 12:32N 38°04' W 122°16'12 2.8
2016-Jul-19 08:25N 37°54' W 122°25'8 1.6
2016-Jul-19 03:28N 37°46' W 122°23'14 6.7
2016-Jul-19 01:22N 38°01' W 122°23'  

Dump ship's entire track history